sensor_id;sensor_type;location;lat;lon;timestamp;temperature;humidity
5647;DHT22;2845;48.626;9.362;2023-07-13T00:00:07;20.90;87.30
5647;DHT22;2845;48.626;9.362;2023-07-13T00:02:43;21.00;87.30
5647;DHT22;2845;48.626;9.362;2023-07-13T00:05:17;21.00;86.50
5647;DHT22;2845;48.626;9.362;2023-07-13T00:07:53;21.20;86.00
5647;DHT22;2845;48.626;9.362;2023-07-13T00:10:28;20.90;85.50
5647;DHT22;2845;48.626;9.362;2023-07-13T00:13:02;20.90;85.10
5647;DHT22;2845;48.626;9.362;2023-07-13T00:15:36;20.80;84.90
5647;DHT22;2845;48.626;9.362;2023-07-13T00:18:10;20.80;85.10
5647;DHT22;2845;48.626;9.362;2023-07-13T00:20:44;20.80;84.80
5647;DHT22;2845;48.626;9.362;2023-07-13T00:23:20;20.80;84.90
5647;DHT22;2845;48.626;9.362;2023-07-13T00:25:55;20.70;85.10
5647;DHT22;2845;48.626;9.362;2023-07-13T00:28:30;20.80;85.30
5647;DHT22;2845;48.626;9.362;2023-07-13T00:31:05;23.50;86.90
5647;DHT22;2845;48.626;9.362;2023-07-13T00:33:41;20.80;86.00
5647;DHT22;2845;48.626;9.362;2023-07-13T00:36:15;22.40;86.40
5647;DHT22;2845;48.626;9.362;2023-07-13T00:38:51;20.80;85.40
5647;DHT22;2845;48.626;9.362;2023-07-13T00:41:25;20.80;85.30
5647;DHT22;2845;48.626;9.362;2023-07-13T00:44:00;21.00;85.50
5647;DHT22;2845;48.626;9.362;2023-07-13T00:46:34;21.00;85.50
5647;DHT22;2845;48.626;9.362;2023-07-13T00:49:12;20.80;85.40
5647;DHT22;2845;48.626;9.362;2023-07-13T00:51:49;20.90;85.60
5647;DHT22;2845;48.626;9.362;2023-07-13T00:54:29;20.80;85.70
5647;DHT22;2845;48.626;9.362;2023-07-13T00:57:08;22.90;87.30
5647;DHT22;2845;48.626;9.362;2023-07-13T00:59:50;20.80;86.50
5647;DHT22;2845;48.626;9.362;2023-07-13T01:02:26;22.80;87.70
5647;DHT22;2845;48.626;9.362;2023-07-13T01:05:08;22.40;87.70
5647;DHT22;2845;48.626;9.362;2023-07-13T01:07:44;20.80;86.90
5647;DHT22;2845;48.626;9.362;2023-07-13T01:10:23;24.10;88.30
5647;DHT22;2845;48.626;9.362;2023-07-13T01:12:58;20.90;86.50
5647;DHT22;2845;48.626;9.362;2023-07-13T01:15:36;20.90;86.10
5647;DHT22;2845;48.626;9.362;2023-07-13T01:18:14;20.90;86.00
5647;DHT22;2845;48.626;9.362;2023-07-13T01:20:53;22.40;86.20
5647;DHT22;2845;48.626;9.362;2023-07-13T01:23:29;20.90;85.20
5647;DHT22;2845;48.626;9.362;2023-07-13T01:26:05;20.90;85.10
5647;DHT22;2845;48.626;9.362;2023-07-13T01:28:39;20.80;85.10
5647;DHT22;2845;48.626;9.362;2023-07-13T01:31:13;21.90;85.40
5647;DHT22;2845;48.626;9.362;2023-07-13T01:33:48;20.90;85.10
5647;DHT22;2845;48.626;9.362;2023-07-13T01:36:23;20.80;85.00
5647;DHT22;2845;48.626;9.362;2023-07-13T01:38:57;20.80;84.80
5647;DHT22;2845;48.626;9.362;2023-07-13T01:41:31;23.90;86.40
5647;DHT22;2845;48.626;9.362;2023-07-13T01:44:06;21.90;85.70
5647;DHT22;2845;48.626;9.362;2023-07-13T01:46:40;22.50;85.90
5647;DHT22;2845;48.626;9.362;2023-07-13T01:49:14;20.70;85.20
5647;DHT22;2845;48.626;9.362;2023-07-13T01:51:50;23.20;86.50
5647;DHT22;2845;48.626;9.362;2023-07-13T01:54:24;23.10;86.70
5647;DHT22;2845;48.626;9.362;2023-07-13T01:56:59;22.70;86.70
5647;DHT22;2845;48.626;9.362;2023-07-13T01:59:33;22.20;86.60
5647;DHT22;2845;48.626;9.362;2023-07-13T02:02:07;20.70;85.90
5647;DHT22;2845;48.626;9.362;2023-07-13T02:04:41;22.90;86.80
5647;DHT22;2845;48.626;9.362;2023-07-13T02:07:17;22.40;86.50
5647;DHT22;2845;48.626;9.362;2023-07-13T02:09:51;20.70;85.60
5647;DHT22;2845;48.626;9.362;2023-07-13T02:12:26;20.70;85.50
5647;DHT22;2845;48.626;9.362;2023-07-13T02:15:00;22.20;86.10
5647;DHT22;2845;48.626;9.362;2023-07-13T02:17:35;20.70;85.40
5647;DHT22;2845;48.626;9.362;2023-07-13T02:20:10;21.90;86.20
5647;DHT22;2845;48.626;9.362;2023-07-13T02:22:46;20.70;85.80
5647;DHT22;2845;48.626;9.362;2023-07-13T02:25:21;20.70;85.80
5647;DHT22;2845;48.626;9.362;2023-07-13T02:27:55;20.80;85.90
5647;DHT22;2845;48.626;9.362;2023-07-13T02:30:30;20.80;85.90
5647;DHT22;2845;48.626;9.362;2023-07-13T02:33:05;20.70;85.90
5647;DHT22;2845;48.626;9.362;2023-07-13T02:35:39;20.60;86.20
5647;DHT22;2845;48.626;9.362;2023-07-13T02:38:15;20.60;86.10
5647;DHT22;2845;48.626;9.362;2023-07-13T02:40:49;20.50;86.40
5647;DHT22;2845;48.626;9.362;2023-07-13T02:43:23;21.90;86.80
5647;DHT22;2845;48.626;9.362;2023-07-13T02:45:58;20.20;86.50
5647;DHT22;2845;48.626;9.362;2023-07-13T02:48:38;20.20;87.00
5647;DHT22;2845;48.626;9.362;2023-07-13T02:51:13;20.20;87.40
5647;DHT22;2845;48.626;9.362;2023-07-13T02:53:48;20.20;87.60
5647;DHT22;2845;48.626;9.362;2023-07-13T02:56:24;20.20;87.10
5647;DHT22;2845;48.626;9.362;2023-07-13T02:59:00;20.00;87.00
5647;DHT22;2845;48.626;9.362;2023-07-13T03:01:35;20.10;87.70
5647;DHT22;2845;48.626;9.362;2023-07-13T03:04:09;20.00;87.70
5647;DHT22;2845;48.626;9.362;2023-07-13T03:06:45;20.10;88.10
5647;DHT22;2845;48.626;9.362;2023-07-13T03:09:21;19.90;88.20
5647;DHT22;2845;48.626;9.362;2023-07-13T03:11:56;20.00;88.30
5647;DHT22;2845;48.626;9.362;2023-07-13T03:14:30;19.90;88.00
5647;DHT22;2845;48.626;9.362;2023-07-13T03:17:04;19.80;88.40
5647;DHT22;2845;48.626;9.362;2023-07-13T03:19:38;19.80;88.60
5647;DHT22;2845;48.626;9.362;2023-07-13T03:22:13;19.90;88.60
5647;DHT22;2845;48.626;9.362;2023-07-13T03:24:49;19.80;88.50
5647;DHT22;2845;48.626;9.362;2023-07-13T03:27:23;19.80;88.40
5647;DHT22;2845;48.626;9.362;2023-07-13T03:29:57;19.80;88.30
5647;DHT22;2845;48.626;9.362;2023-07-13T03:32:31;19.80;88.40
5647;DHT22;2845;48.626;9.362;2023-07-13T03:35:07;19.70;88.70
5647;DHT22;2845;48.626;9.362;2023-07-13T03:37:43;19.70;89.20
5647;DHT22;2845;48.626;9.362;2023-07-13T03:40:18;21.10;90.00
5647;DHT22;2845;48.626;9.362;2023-07-13T03:42:53;19.70;89.70
5647;DHT22;2845;48.626;9.362;2023-07-13T03:45:27;19.80;90.10
5647;DHT22;2845;48.626;9.362;2023-07-13T03:48:01;22.70;90.40
5647;DHT22;2845;48.626;9.362;2023-07-13T03:50:35;19.80;89.70
5647;DHT22;2845;48.626;9.362;2023-07-13T03:53:11;19.70;89.90
5647;DHT22;2845;48.626;9.362;2023-07-13T03:55:46;19.70;90.00
5647;DHT22;2845;48.626;9.362;2023-07-13T03:58:26;19.80;90.00
5647;DHT22;2845;48.626;9.362;2023-07-13T04:01:06;21.30;90.30
5647;DHT22;2845;48.626;9.362;2023-07-13T04:03:42;22.90;90.70
5647;DHT22;2845;48.626;9.362;2023-07-13T04:06:19;23.10;90.80
5647;DHT22;2845;48.626;9.362;2023-07-13T04:08:56;19.60;90.20
5647;DHT22;2845;48.626;9.362;2023-07-13T04:11:33;19.70;90.40
5647;DHT22;2845;48.626;9.362;2023-07-13T04:14:09;19.70;90.40
5647;DHT22;2845;48.626;9.362;2023-07-13T04:16:44;22.20;90.80
5647;DHT22;2845;48.626;9.362;2023-07-13T04:19:18;19.80;89.80
5647;DHT22;2845;48.626;9.362;2023-07-13T04:21:52;23.30;90.60
5647;DHT22;2845;48.626;9.362;2023-07-13T04:24:26;19.90;89.70
5647;DHT22;2845;48.626;9.362;2023-07-13T04:27:02;20.00;88.80
5647;DHT22;2845;48.626;9.362;2023-07-13T04:29:37;19.90;88.10
5647;DHT22;2845;48.626;9.362;2023-07-13T04:32:11;20.00;87.80
5647;DHT22;2845;48.626;9.362;2023-07-13T04:34:45;20.00;87.50
5647;DHT22;2845;48.626;9.362;2023-07-13T04:37:20;20.50;87.60
5647;DHT22;2845;48.626;9.362;2023-07-13T04:39:54;20.10;88.10
5647;DHT22;2845;48.626;9.362;2023-07-13T04:42:30;20.20;88.60
5647;DHT22;2845;48.626;9.362;2023-07-13T04:45:05;20.10;89.10
5647;DHT22;2845;48.626;9.362;2023-07-13T04:47:41;20.10;89.10
5647;DHT22;2845;48.626;9.362;2023-07-13T04:50:15;20.20;89.70
5647;DHT22;2845;48.626;9.362;2023-07-13T04:52:53;20.10;89.90
5647;DHT22;2845;48.626;9.362;2023-07-13T04:55:28;20.10;89.90
5647;DHT22;2845;48.626;9.362;2023-07-13T05:00:39;20.10;89.40
5647;DHT22;2845;48.626;9.362;2023-07-13T05:03:13;23.10;90.50
5647;DHT22;2845;48.626;9.362;2023-07-13T05:05:55;20.20;89.50
5647;DHT22;2845;48.626;9.362;2023-07-13T05:08:29;20.20;89.20
5647;DHT22;2845;48.626;9.362;2023-07-13T05:11:04;20.30;88.70
5647;DHT22;2845;48.626;9.362;2023-07-13T05:13:41;20.20;87.90
5647;DHT22;2845;48.626;9.362;2023-07-13T05:16:15;20.20;87.70
5647;DHT22;2845;48.626;9.362;2023-07-13T05:18:50;20.30;87.50
5647;DHT22;2845;48.626;9.362;2023-07-13T05:21:24;20.30;87.20
5647;DHT22;2845;48.626;9.362;2023-07-13T05:23:58;20.30;86.80
5647;DHT22;2845;48.626;9.362;2023-07-13T05:26:51;20.50;86.50
5647;DHT22;2845;48.626;9.362;2023-07-13T05:29:27;20.50;86.40
5647;DHT22;2845;48.626;9.362;2023-07-13T05:32:01;20.50;87.90
5647;DHT22;2845;48.626;9.362;2023-07-13T05:34:36;20.30;88.50
5647;DHT22;2845;48.626;9.362;2023-07-13T05:37:10;20.20;89.10
5647;DHT22;2845;48.626;9.362;2023-07-13T05:39:44;20.10;89.60
5647;DHT22;2845;48.626;9.362;2023-07-13T05:42:18;20.00;89.70
5647;DHT22;2845;48.626;9.362;2023-07-13T05:44:54;20.00;89.80
5647;DHT22;2845;48.626;9.362;2023-07-13T05:47:28;20.10;89.40
5647;DHT22;2845;48.626;9.362;2023-07-13T05:50:03;20.10;88.80
5647;DHT22;2845;48.626;9.362;2023-07-13T05:52:38;20.10;88.10
5647;DHT22;2845;48.626;9.362;2023-07-13T05:55:12;20.10;87.90
5647;DHT22;2845;48.626;9.362;2023-07-13T05:57:47;20.20;88.00
5647;DHT22;2845;48.626;9.362;2023-07-13T06:00:23;20.20;87.80
5647;DHT22;2845;48.626;9.362;2023-07-13T06:02:57;20.30;86.60
5647;DHT22;2845;48.626;9.362;2023-07-13T06:05:31;20.40;86.80
5647;DHT22;2845;48.626;9.362;2023-07-13T06:08:07;20.40;87.10
5647;DHT22;2845;48.626;9.362;2023-07-13T06:10:41;20.40;87.10
5647;DHT22;2845;48.626;9.362;2023-07-13T06:13:15;20.40;87.20
5647;DHT22;2845;48.626;9.362;2023-07-13T06:15:53;20.60;86.00
5647;DHT22;2845;48.626;9.362;2023-07-13T06:18:27;20.60;85.20
5647;DHT22;2845;48.626;9.362;2023-07-13T06:21:05;20.80;84.70
5647;DHT22;2845;48.626;9.362;2023-07-13T06:23:40;20.90;84.30
5647;DHT22;2845;48.626;9.362;2023-07-13T06:26:14;21.00;83.50
5647;DHT22;2845;48.626;9.362;2023-07-13T06:28:49;21.20;83.00
5647;DHT22;2845;48.626;9.362;2023-07-13T06:31:25;21.10;82.80
5647;DHT22;2845;48.626;9.362;2023-07-13T06:33:59;21.10;82.60
5647;DHT22;2845;48.626;9.362;2023-07-13T06:36:33;21.40;81.80
5647;DHT22;2845;48.626;9.362;2023-07-13T06:39:08;21.40;80.60
5647;DHT22;2845;48.626;9.362;2023-07-13T06:41:43;21.50;80.10
5647;DHT22;2845;48.626;9.362;2023-07-13T06:44:17;21.60;79.30
5647;DHT22;2845;48.626;9.362;2023-07-13T06:46:52;22.20;78.80
5647;DHT22;2845;48.626;9.362;2023-07-13T06:49:27;21.80;77.30
5647;DHT22;2845;48.626;9.362;2023-07-13T06:52:01;21.90;77.10
5647;DHT22;2845;48.626;9.362;2023-07-13T06:54:35;21.90;76.70
5647;DHT22;2845;48.626;9.362;2023-07-13T06:57:09;21.90;76.00
5647;DHT22;2845;48.626;9.362;2023-07-13T06:59:43;22.20;75.30
5647;DHT22;2845;48.626;9.362;2023-07-13T07:02:18;22.10;74.50
5647;DHT22;2845;48.626;9.362;2023-07-13T07:04:53;22.10;74.50
5647;DHT22;2845;48.626;9.362;2023-07-13T07:07:27;22.20;73.20
5647;DHT22;2845;48.626;9.362;2023-07-13T07:10:02;22.20;73.30
5647;DHT22;2845;48.626;9.362;2023-07-13T07:12:36;22.30;73.90
5647;DHT22;2845;48.626;9.362;2023-07-13T07:15:11;22.50;74.90
5647;DHT22;2845;48.626;9.362;2023-07-13T07:17:46;22.60;73.80
5647;DHT22;2845;48.626;9.362;2023-07-13T07:20:21;22.70;72.60
5647;DHT22;2845;48.626;9.362;2023-07-13T07:22:55;22.70;72.70
5647;DHT22;2845;48.626;9.362;2023-07-13T07:25:29;22.80;72.10
5647;DHT22;2845;48.626;9.362;2023-07-13T07:28:04;22.70;72.40
5647;DHT22;2845;48.626;9.362;2023-07-13T07:30:42;22.60;71.90
5647;DHT22;2845;48.626;9.362;2023-07-13T07:33:20;22.50;72.00
5647;DHT22;2845;48.626;9.362;2023-07-13T07:35:55;22.40;72.50
5647;DHT22;2845;48.626;9.362;2023-07-13T07:38:32;22.50;72.10
5647;DHT22;2845;48.626;9.362;2023-07-13T07:41:06;22.60;72.00
5647;DHT22;2845;48.626;9.362;2023-07-13T07:43:43;22.80;70.60
5647;DHT22;2845;48.626;9.362;2023-07-13T07:46:17;22.90;70.90
5647;DHT22;2845;48.626;9.362;2023-07-13T07:48:53;23.00;70.70
5647;DHT22;2845;48.626;9.362;2023-07-13T07:51:27;23.10;70.80
5647;DHT22;2845;48.626;9.362;2023-07-13T07:54:02;23.30;70.90
5647;DHT22;2845;48.626;9.362;2023-07-13T07:56:36;23.40;69.70
5647;DHT22;2845;48.626;9.362;2023-07-13T07:59:13;23.50;68.60
5647;DHT22;2845;48.626;9.362;2023-07-13T08:01:50;23.30;68.60
5647;DHT22;2845;48.626;9.362;2023-07-13T08:04:29;23.30;68.90
5647;DHT22;2845;48.626;9.362;2023-07-13T08:07:06;23.30;68.30
5647;DHT22;2845;48.626;9.362;2023-07-13T08:09:41;23.50;68.50
5647;DHT22;2845;48.626;9.362;2023-07-13T08:12:15;23.60;69.10
5647;DHT22;2845;48.626;9.362;2023-07-13T08:15:12;23.80;67.80
5647;DHT22;2845;48.626;9.362;2023-07-13T08:17:48;24.10;66.60
5647;DHT22;2845;48.626;9.362;2023-07-13T08:20:23;23.90;67.00
5647;DHT22;2845;48.626;9.362;2023-07-13T08:22:59;24.10;67.90
5647;DHT22;2845;48.626;9.362;2023-07-13T08:25:33;24.60;67.40
5647;DHT22;2845;48.626;9.362;2023-07-13T08:28:07;24.10;66.30
5647;DHT22;2845;48.626;9.362;2023-07-13T08:30:41;24.20;65.40
5647;DHT22;2845;48.626;9.362;2023-07-13T08:33:16;24.20;65.10
5647;DHT22;2845;48.626;9.362;2023-07-13T08:35:51;24.30;66.10
5647;DHT22;2845;48.626;9.362;2023-07-13T08:38:26;24.40;65.20
5647;DHT22;2845;48.626;9.362;2023-07-13T08:41:09;24.40;65.20
5647;DHT22;2845;48.626;9.362;2023-07-13T08:43:50;24.30;64.80
5647;DHT22;2845;48.626;9.362;2023-07-13T08:46:28;24.30;64.60
5647;DHT22;2845;48.626;9.362;2023-07-13T08:49:11;24.30;64.90
5647;DHT22;2845;48.626;9.362;2023-07-13T08:51:51;24.30;64.60
5647;DHT22;2845;48.626;9.362;2023-07-13T08:54:29;24.70;66.00
5647;DHT22;2845;48.626;9.362;2023-07-13T08:57:13;25.40;65.20
5647;DHT22;2845;48.626;9.362;2023-07-13T08:59:48;25.20;64.20
5647;DHT22;2845;48.626;9.362;2023-07-13T09:02:26;25.50;63.90
5647;DHT22;2845;48.626;9.362;2023-07-13T09:05:08;25.40;62.50
5647;DHT22;2845;48.626;9.362;2023-07-13T09:07:58;25.30;63.20
5647;DHT22;2845;48.626;9.362;2023-07-13T09:10:43;25.30;62.80
5647;DHT22;2845;48.626;9.362;2023-07-13T09:13:26;25.30;62.90
5647;DHT22;2845;48.626;9.362;2023-07-13T09:16:04;25.30;62.60
5647;DHT22;2845;48.626;9.362;2023-07-13T09:18:42;25.60;62.80
5647;DHT22;2845;48.626;9.362;2023-07-13T09:21:23;25.80;61.70
5647;DHT22;2845;48.626;9.362;2023-07-13T09:24:23;25.60;62.70
5647;DHT22;2845;48.626;9.362;2023-07-13T09:29:49;25.40;62.60
5647;DHT22;2845;48.626;9.362;2023-07-13T09:32:31;25.60;61.70
5647;DHT22;2845;48.626;9.362;2023-07-13T09:35:11;25.50;61.90
5647;DHT22;2845;48.626;9.362;2023-07-13T09:37:46;25.10;62.30
5647;DHT22;2845;48.626;9.362;2023-07-13T09:40:27;26.00;64.10
5647;DHT22;2845;48.626;9.362;2023-07-13T09:43:05;25.50;62.80
5647;DHT22;2845;48.626;9.362;2023-07-13T09:45:45;25.70;62.70
5647;DHT22;2845;48.626;9.362;2023-07-13T09:48:21;25.80;61.30
5647;DHT22;2845;48.626;9.362;2023-07-13T09:51:06;25.70;61.40
5647;DHT22;2845;48.626;9.362;2023-07-13T09:53:44;25.60;61.60
5647;DHT22;2845;48.626;9.362;2023-07-13T09:56:25;25.50;60.00
5647;DHT22;2845;48.626;9.362;2023-07-13T09:59:00;25.20;60.80
5647;DHT22;2845;48.626;9.362;2023-07-13T10:01:37;25.00;61.20
5647;DHT22;2845;48.626;9.362;2023-07-13T10:04:14;24.90;60.80
5647;DHT22;2845;48.626;9.362;2023-07-13T10:07:05;25.60;60.70
5647;DHT22;2845;48.626;9.362;2023-07-13T10:10:01;25.90;60.60
5647;DHT22;2845;48.626;9.362;2023-07-13T10:12:37;26.60;60.20
5647;DHT22;2845;48.626;9.362;2023-07-13T10:15:15;27.00;58.70
5647;DHT22;2845;48.626;9.362;2023-07-13T10:17:56;27.30;58.60
5647;DHT22;2845;48.626;9.362;2023-07-13T10:20:31;28.20;58.90
5647;DHT22;2845;48.626;9.362;2023-07-13T10:23:11;28.20;57.50
5647;DHT22;2845;48.626;9.362;2023-07-13T10:25:48;27.20;55.90
5647;DHT22;2845;48.626;9.362;2023-07-13T10:28:29;27.60;57.00
5647;DHT22;2845;48.626;9.362;2023-07-13T10:31:07;26.70;57.70
5647;DHT22;2845;48.626;9.362;2023-07-13T10:33:48;26.70;58.60
5647;DHT22;2845;48.626;9.362;2023-07-13T10:36:33;26.90;57.90
5647;DHT22;2845;48.626;9.362;2023-07-13T10:39:16;27.30;57.00
5647;DHT22;2845;48.626;9.362;2023-07-13T10:41:54;27.70;58.50
5647;DHT22;2845;48.626;9.362;2023-07-13T10:44:32;28.10;57.10
5647;DHT22;2845;48.626;9.362;2023-07-13T10:47:11;28.20;56.70
5647;DHT22;2845;48.626;9.362;2023-07-13T10:49:50;28.20;56.50
5647;DHT22;2845;48.626;9.362;2023-07-13T10:52:42;28.40;57.40
5647;DHT22;2845;48.626;9.362;2023-07-13T10:55:37;28.50;55.40
5647;DHT22;2845;48.626;9.362;2023-07-13T10:58:19;28.30;54.90
5647;DHT22;2845;48.626;9.362;2023-07-13T11:01:06;28.20;56.50
5647;DHT22;2845;48.626;9.362;2023-07-13T11:03:49;28.20;55.80
5647;DHT22;2845;48.626;9.362;2023-07-13T11:06:33;28.20;56.20
5647;DHT22;2845;48.626;9.362;2023-07-13T11:09:30;28.10;56.10
5647;DHT22;2845;48.626;9.362;2023-07-13T11:12:08;28.00;56.90
5647;DHT22;2845;48.626;9.362;2023-07-13T11:15:03;27.90;55.70
5647;DHT22;2845;48.626;9.362;2023-07-13T11:17:53;27.80;55.40
5647;DHT22;2845;48.626;9.362;2023-07-13T11:20:34;27.60;56.10
5647;DHT22;2845;48.626;9.362;2023-07-13T11:23:19;27.50;55.40
5647;DHT22;2845;48.626;9.362;2023-07-13T11:26:02;27.10;56.10
5647;DHT22;2845;48.626;9.362;2023-07-13T11:28:37;26.70;57.10
5647;DHT22;2845;48.626;9.362;2023-07-13T11:31:16;26.60;58.00
5647;DHT22;2845;48.626;9.362;2023-07-13T11:33:56;26.60;58.50
5647;DHT22;2845;48.626;9.362;2023-07-13T11:36:36;26.80;58.70
5647;DHT22;2845;48.626;9.362;2023-07-13T11:39:18;27.10;58.80
5647;DHT22;2845;48.626;9.362;2023-07-13T11:41:56;27.30;58.60
5647;DHT22;2845;48.626;9.362;2023-07-13T11:44:33;27.50;55.00
5647;DHT22;2845;48.626;9.362;2023-07-13T11:47:10;27.60;57.20
5647;DHT22;2845;48.626;9.362;2023-07-13T11:49:52;27.60;56.20
5647;DHT22;2845;48.626;9.362;2023-07-13T11:52:33;27.70;56.70
5647;DHT22;2845;48.626;9.362;2023-07-13T11:55:16;27.80;55.30
5647;DHT22;2845;48.626;9.362;2023-07-13T11:57:56;28.00;56.30
5647;DHT22;2845;48.626;9.362;2023-07-13T12:00:33;28.30;56.30
5647;DHT22;2845;48.626;9.362;2023-07-13T12:03:10;28.30;56.70
5647;DHT22;2845;48.626;9.362;2023-07-13T12:05:57;28.50;56.50
5647;DHT22;2845;48.626;9.362;2023-07-13T12:08:38;28.50;55.70
5647;DHT22;2845;48.626;9.362;2023-07-13T12:11:16;28.40;56.30
5647;DHT22;2845;48.626;9.362;2023-07-13T12:13:50;28.30;55.50
5647;DHT22;2845;48.626;9.362;2023-07-13T12:16:29;28.10;55.80
5647;DHT22;2845;48.626;9.362;2023-07-13T12:19:17;27.90;56.60
5647;DHT22;2845;48.626;9.362;2023-07-13T12:21:57;27.70;55.50
5647;DHT22;2845;48.626;9.362;2023-07-13T12:24:34;27.60;57.20
5647;DHT22;2845;48.626;9.362;2023-07-13T12:27:19;27.50;56.30
5647;DHT22;2845;48.626;9.362;2023-07-13T12:29:58;27.10;54.40
5647;DHT22;2845;48.626;9.362;2023-07-13T12:32:33;26.70;55.30
5647;DHT22;2845;48.626;9.362;2023-07-13T12:35:16;26.50;56.20
5647;DHT22;2845;48.626;9.362;2023-07-13T12:37:57;26.40;58.00
5647;DHT22;2845;48.626;9.362;2023-07-13T12:40:34;26.70;58.70
5647;DHT22;2845;48.626;9.362;2023-07-13T12:43:12;26.60;57.20
5647;DHT22;2845;48.626;9.362;2023-07-13T12:45:57;26.80;57.30
5647;DHT22;2845;48.626;9.362;2023-07-13T12:48:39;27.00;56.50
5647;DHT22;2845;48.626;9.362;2023-07-13T12:51:26;27.10;56.20
5647;DHT22;2845;48.626;9.362;2023-07-13T12:54:13;27.40;56.00
5647;DHT22;2845;48.626;9.362;2023-07-13T12:56:54;27.60;55.80
5647;DHT22;2845;48.626;9.362;2023-07-13T12:59:32;27.80;55.80
5647;DHT22;2845;48.626;9.362;2023-07-13T13:02:28;27.90;54.10
5647;DHT22;2845;48.626;9.362;2023-07-13T13:05:04;27.90;54.30
5647;DHT22;2845;48.626;9.362;2023-07-13T13:07:39;27.90;55.60
5647;DHT22;2845;48.626;9.362;2023-07-13T13:10:15;28.00;55.30
5647;DHT22;2845;48.626;9.362;2023-07-13T13:12:51;28.20;55.30
5647;DHT22;2845;48.626;9.362;2023-07-13T13:15:26;28.10;55.40
5647;DHT22;2845;48.626;9.362;2023-07-13T13:18:00;27.90;54.70
5647;DHT22;2845;48.626;9.362;2023-07-13T13:20:34;27.80;55.10
5647;DHT22;2845;48.626;9.362;2023-07-13T13:23:12;27.60;55.30
5647;DHT22;2845;48.626;9.362;2023-07-13T13:25:50;27.70;54.80
5647;DHT22;2845;48.626;9.362;2023-07-13T13:28:24;27.40;55.20
5647;DHT22;2845;48.626;9.362;2023-07-13T13:30:59;27.60;54.60
5647;DHT22;2845;48.626;9.362;2023-07-13T13:33:34;27.80;55.70
5647;DHT22;2845;48.626;9.362;2023-07-13T13:36:13;28.10;55.10
5647;DHT22;2845;48.626;9.362;2023-07-13T13:38:50;28.30;54.50
5647;DHT22;2845;48.626;9.362;2023-07-13T13:41:26;28.50;54.00
5647;DHT22;2845;48.626;9.362;2023-07-13T13:44:01;28.60;53.60
5647;DHT22;2845;48.626;9.362;2023-07-13T13:46:38;29.30;54.30
5647;DHT22;2845;48.626;9.362;2023-07-13T13:49:14;28.80;53.10
5647;DHT22;2845;48.626;9.362;2023-07-13T13:51:51;28.60;52.80
5647;DHT22;2845;48.626;9.362;2023-07-13T13:54:26;28.60;54.30
5647;DHT22;2845;48.626;9.362;2023-07-13T13:57:01;28.90;54.10
5647;DHT22;2845;48.626;9.362;2023-07-13T13:59:39;28.80;53.20
5647;DHT22;2845;48.626;9.362;2023-07-13T14:02:24;28.60;53.50
5647;DHT22;2845;48.626;9.362;2023-07-13T14:05:02;28.00;53.90
5647;DHT22;2845;48.626;9.362;2023-07-13T14:07:38;27.80;53.00
5647;DHT22;2845;48.626;9.362;2023-07-13T14:10:14;28.40;54.10
5647;DHT22;2845;48.626;9.362;2023-07-13T14:12:53;27.80;54.10
5647;DHT22;2845;48.626;9.362;2023-07-13T14:15:29;28.20;54.60
5647;DHT22;2845;48.626;9.362;2023-07-13T14:18:04;28.40;51.90
5647;DHT22;2845;48.626;9.362;2023-07-13T14:20:39;28.50;51.30
5647;DHT22;2845;48.626;9.362;2023-07-13T14:23:14;28.60;52.10
5647;DHT22;2845;48.626;9.362;2023-07-13T14:25:52;28.60;53.30
5647;DHT22;2845;48.626;9.362;2023-07-13T14:28:27;28.50;53.30
5647;DHT22;2845;48.626;9.362;2023-07-13T14:31:02;28.50;53.20
5647;DHT22;2845;48.626;9.362;2023-07-13T14:33:37;28.80;53.40
5647;DHT22;2845;48.626;9.362;2023-07-13T14:36:27;29.10;52.60
5647;DHT22;2845;48.626;9.362;2023-07-13T14:39:12;29.10;51.40
5647;DHT22;2845;48.626;9.362;2023-07-13T14:41:50;28.90;51.80
5647;DHT22;2845;48.626;9.362;2023-07-13T14:44:29;29.10;51.70
5647;DHT22;2845;48.626;9.362;2023-07-13T14:47:05;29.10;50.90
5647;DHT22;2845;48.626;9.362;2023-07-13T14:49:41;29.20;51.90
5647;DHT22;2845;48.626;9.362;2023-07-13T14:52:18;29.20;52.40
5647;DHT22;2845;48.626;9.362;2023-07-13T14:54:59;29.40;51.80
5647;DHT22;2845;48.626;9.362;2023-07-13T14:57:33;29.60;51.20
5647;DHT22;2845;48.626;9.362;2023-07-13T15:00:15;29.50;50.60
5647;DHT22;2845;48.626;9.362;2023-07-13T15:02:53;29.10;50.90
5647;DHT22;2845;48.626;9.362;2023-07-13T15:05:30;29.70;50.70
5647;DHT22;2845;48.626;9.362;2023-07-13T15:08:05;29.20;51.20
5647;DHT22;2845;48.626;9.362;2023-07-13T15:10:39;29.60;50.80
5647;DHT22;2845;48.626;9.362;2023-07-13T15:13:16;29.60;50.00
5647;DHT22;2845;48.626;9.362;2023-07-13T15:15:53;29.30;51.60
5647;DHT22;2845;48.626;9.362;2023-07-13T15:18:28;29.00;51.10
5647;DHT22;2845;48.626;9.362;2023-07-13T15:21:02;28.80;51.80
5647;DHT22;2845;48.626;9.362;2023-07-13T15:23:38;28.50;51.50
5647;DHT22;2845;48.626;9.362;2023-07-13T15:26:14;28.20;51.80
5647;DHT22;2845;48.626;9.362;2023-07-13T15:28:49;28.00;52.10
5647;DHT22;2845;48.626;9.362;2023-07-13T15:31:26;27.70;52.40
5647;DHT22;2845;48.626;9.362;2023-07-13T15:34:04;27.40;53.20
5647;DHT22;2845;48.626;9.362;2023-07-13T15:36:44;27.30;53.50
5647;DHT22;2845;48.626;9.362;2023-07-13T15:39:19;27.20;53.90
5647;DHT22;2845;48.626;9.362;2023-07-13T15:41:54;27.30;53.80
5647;DHT22;2845;48.626;9.362;2023-07-13T15:44:30;27.20;53.20
5647;DHT22;2845;48.626;9.362;2023-07-13T15:47:09;27.30;53.10
5647;DHT22;2845;48.626;9.362;2023-07-13T15:49:45;27.30;53.60
5647;DHT22;2845;48.626;9.362;2023-07-13T15:52:22;27.50;52.60
5647;DHT22;2845;48.626;9.362;2023-07-13T15:54:58;27.40;52.80
5647;DHT22;2845;48.626;9.362;2023-07-13T15:57:34;27.00;53.40
5647;DHT22;2845;48.626;9.362;2023-07-13T16:00:16;26.80;54.50
5647;DHT22;2845;48.626;9.362;2023-07-13T16:02:56;26.80;54.90
5647;DHT22;2845;48.626;9.362;2023-07-13T16:05:30;26.90;53.60
5647;DHT22;2845;48.626;9.362;2023-07-13T16:08:06;27.00;54.70
5647;DHT22;2845;48.626;9.362;2023-07-13T16:10:50;27.10;54.70
5647;DHT22;2845;48.626;9.362;2023-07-13T16:13:25;27.00;53.60
5647;DHT22;2845;48.626;9.362;2023-07-13T16:16:00;27.30;54.90
5647;DHT22;2845;48.626;9.362;2023-07-13T16:18:35;26.60;55.10
5647;DHT22;2845;48.626;9.362;2023-07-13T16:21:11;26.50;55.50
5647;DHT22;2845;48.626;9.362;2023-07-13T16:23:46;26.50;55.10
5647;DHT22;2845;48.626;9.362;2023-07-13T16:26:37;26.40;55.40
5647;DHT22;2845;48.626;9.362;2023-07-13T16:29:17;26.30;55.40
5647;DHT22;2845;48.626;9.362;2023-07-13T16:32:00;26.30;55.30
5647;DHT22;2845;48.626;9.362;2023-07-13T16:34:40;26.20;55.90
5647;DHT22;2845;48.626;9.362;2023-07-13T16:37:17;26.20;56.10
5647;DHT22;2845;48.626;9.362;2023-07-13T16:39:57;26.30;55.70
5647;DHT22;2845;48.626;9.362;2023-07-13T16:42:33;26.30;54.70
5647;DHT22;2845;48.626;9.362;2023-07-13T16:45:11;26.10;54.80
5647;DHT22;2845;48.626;9.362;2023-07-13T16:47:46;26.00;55.00
5647;DHT22;2845;48.626;9.362;2023-07-13T16:50:24;26.00;55.00
5647;DHT22;2845;48.626;9.362;2023-07-13T16:52:59;25.90;55.80
5647;DHT22;2845;48.626;9.362;2023-07-13T16:55:35;26.00;55.60
5647;DHT22;2845;48.626;9.362;2023-07-13T16:58:09;25.90;55.60
5647;DHT22;2845;48.626;9.362;2023-07-13T17:00:44;25.80;55.50
5647;DHT22;2845;48.626;9.362;2023-07-13T17:03:20;25.70;55.70
5647;DHT22;2845;48.626;9.362;2023-07-13T17:06:04;25.50;55.30
5647;DHT22;2845;48.626;9.362;2023-07-13T17:08:56;25.50;55.80
5647;DHT22;2845;48.626;9.362;2023-07-13T17:11:31;25.50;54.90